createdAt,value
2023-02-14T00:00:29.926Z,60.54
2023-02-14T00:02:57.210Z,62.03
2023-02-14T00:05:23.915Z,61.24
2023-02-14T00:07:50.664Z,61.64
2023-02-14T00:10:17.672Z,61.06
2023-02-14T00:12:44.444Z,60.80
2023-02-14T00:15:23.845Z,60.98
2023-02-14T00:17:56.074Z,61.39
2023-02-14T00:20:23.918Z,61.82
2023-02-14T00:22:50.887Z,61.91
2023-02-14T00:25:18.244Z,61.61
2023-02-14T00:27:44.946Z,61.07
2023-02-14T00:30:13.373Z,61.54
2023-02-14T00:32:41.613Z,61.08
2023-02-14T00:35:09.699Z,61.43
2023-02-14T00:37:36.573Z,62.10
2023-02-14T00:40:03.735Z,61.82
2023-02-14T00:42:31.206Z,62.16
2023-02-14T00:44:57.884Z,62.48
2023-02-14T00:47:24.529Z,62.40
2023-02-14T00:49:51.790Z,62.05
2023-02-14T00:52:18.598Z,61.21
2023-02-14T00:54:45.309Z,61.65
2023-02-14T00:57:13.974Z,62.76
2023-02-14T00:59:40.799Z,61.92
2023-02-14T01:02:07.592Z,61.88
2023-02-14T01:04:34.471Z,61.56
2023-02-14T01:07:01.090Z,61.69
2023-02-14T01:09:27.843Z,62.56
2023-02-14T01:11:54.546Z,62.56
2023-02-14T01:14:21.257Z,62.86
2023-02-14T01:16:49.831Z,61.73
2023-02-14T01:19:16.836Z,62.10
2023-02-14T01:21:43.731Z,62.12
2023-02-14T01:24:12.025Z,62.15
2023-02-14T01:26:39.773Z,62.17
2023-02-14T01:29:07.062Z,61.51
2023-02-14T01:31:35.486Z,61.66
2023-02-14T01:34:02.344Z,61.83
2023-02-14T01:36:35.696Z,62.57
2023-02-14T01:39:06.645Z,62.70
2023-02-14T01:41:36.240Z,61.61
2023-02-14T01:44:05.004Z,62.17
2023-02-14T01:46:37.552Z,62.34
2023-02-14T01:49:18.474Z,62.70
2023-02-14T01:51:52.853Z,62.39
2023-02-14T01:54:23.403Z,62.90
2023-02-14T01:56:56.918Z,62.11
2023-02-14T01:59:26.690Z,62.61
2023-02-14T02:01:54.183Z,62.84
2023-02-14T02:04:31.000Z,62.35
2023-02-14T02:07:03.970Z,62.19
2023-02-14T02:09:39.119Z,62.46
2023-02-14T02:12:05.826Z,62.91
2023-02-14T02:14:33.332Z,62.85
2023-02-14T02:17:25.417Z,61.89
2023-02-14T02:20:29.359Z,63.47
2023-02-14T02:23:07.048Z,63.25
2023-02-14T02:25:48.950Z,63.17
2023-02-14T02:28:26.747Z,62.60
2023-02-14T02:30:56.440Z,63.41
2023-02-14T02:33:56.859Z,64.11
2023-02-14T02:36:39.824Z,63.89
2023-02-14T02:39:15.131Z,63.65
2023-02-14T02:42:02.818Z,63.89
2023-02-14T02:44:41.882Z,63.83
2023-02-14T02:47:32.730Z,63.93
2023-02-14T02:50:45.262Z,63.86
2023-02-14T02:53:33.176Z,63.32
2023-02-14T02:56:40.816Z,63.62
2023-02-14T02:59:18.626Z,64.36
2023-02-14T03:02:05.582Z,64.52
2023-02-14T03:04:53.207Z,64.10
2023-02-14T03:07:36.751Z,63.86
2023-02-14T03:10:13.462Z,63.60
2023-02-14T03:13:01.018Z,64.60
2023-02-14T03:15:27.663Z,64.30
2023-02-14T03:18:16.121Z,64.03
2023-02-14T03:21:21.440Z,63.74
2023-02-14T03:23:57.938Z,64.01
2023-02-14T03:26:37.622Z,64.14
2023-02-14T03:29:22.402Z,64.50
2023-02-14T03:32:02.514Z,63.88
2023-02-14T03:34:33.093Z,64.07
2023-02-14T03:37:02.886Z,64.47
2023-02-14T03:39:59.533Z,64.39
2023-02-14T03:42:32.570Z,63.27
2023-02-14T03:45:02.370Z,63.48
2023-02-14T03:47:32.568Z,64.21
2023-02-14T03:50:31.789Z,64.12
2023-02-14T03:53:00.085Z,63.96
2023-02-14T03:56:02.481Z,64.28
2023-02-14T03:58:37.532Z,63.54
2023-02-14T04:01:15.490Z,63.10
2023-02-14T04:03:43.412Z,63.59
2023-02-14T04:06:10.619Z,64.34
2023-02-14T04:08:37.450Z,64.44
2023-02-14T04:11:05.596Z,63.60
2023-02-14T04:13:32.648Z,63.78
2023-02-14T04:15:59.330Z,63.76
2023-02-14T04:18:44.770Z,64.66
2023-02-14T04:21:11.626Z,64.06
2023-02-14T04:23:38.266Z,64.17
2023-02-14T04:26:05.201Z,64.93
2023-02-14T04:28:32.625Z,64.46
2023-02-14T04:31:04.694Z,64.24
2023-02-14T04:33:31.382Z,64.18
2023-02-14T04:35:58.035Z,63.81
2023-02-14T04:38:24.810Z,64.38
2023-02-14T04:40:51.959Z,64.36
2023-02-14T04:43:19.257Z,64.87
2023-02-14T04:45:47.218Z,64.63
2023-02-14T04:48:13.945Z,64.60
2023-02-14T04:50:40.610Z,64.07
2023-02-14T04:53:07.272Z,64.60
2023-02-14T04:55:33.922Z,64.33
2023-02-14T04:58:00.665Z,64.20
2023-02-14T05:00:27.266Z,64.21
2023-02-14T05:02:53.975Z,64.32
2023-02-14T05:05:20.749Z,64.79
2023-02-14T05:07:47.806Z,64.54
2023-02-14T05:10:15.064Z,64.74
2023-02-14T05:12:42.074Z,63.85
2023-02-14T05:15:09.613Z,64.00
2023-02-14T05:17:36.350Z,64.32
2023-02-14T05:20:05.897Z,64.68
2023-02-14T05:22:32.639Z,64.36
2023-02-14T05:24:59.175Z,64.16
2023-02-14T05:27:25.975Z,64.46
2023-02-14T05:29:52.657Z,64.81
2023-02-14T05:32:19.299Z,64.69
2023-02-14T05:34:45.998Z,65.51
2023-02-14T05:37:12.649Z,65.45
2023-02-14T05:39:39.260Z,66.15
2023-02-14T05:42:06.050Z,65.08
2023-02-14T05:44:32.674Z,66.08
2023-02-14T05:46:59.460Z,65.93
2023-02-14T05:49:26.097Z,64.99
2023-02-14T05:51:52.799Z,65.13
2023-02-14T05:54:19.504Z,65.36
2023-02-14T05:56:46.205Z,65.29
2023-02-14T05:59:14.229Z,64.84
2023-02-14T06:01:41.036Z,65.22
2023-02-14T06:04:07.745Z,64.84
2023-02-14T06:06:36.596Z,65.33
2023-02-14T06:09:03.523Z,65.80
2023-02-14T06:11:30.368Z,65.74
2023-02-14T06:13:57.814Z,64.98
2023-02-14T06:16:24.508Z,64.37
2023-02-14T06:18:51.158Z,65.18
2023-02-14T06:21:17.914Z,64.87
2023-02-14T06:23:44.511Z,65.61
2023-02-14T06:26:11.215Z,66.02
2023-02-14T06:28:37.818Z,66.79
2023-02-14T06:31:05.080Z,67.23
2023-02-14T06:33:31.818Z,67.35
2023-02-14T06:35:58.484Z,66.28
2023-02-14T06:38:25.141Z,66.23
2023-02-14T06:40:51.766Z,66.82
2023-02-14T06:43:18.341Z,66.41
2023-02-14T06:45:46.608Z,66.41
2023-02-14T06:48:13.292Z,66.71
2023-02-14T06:50:39.905Z,66.96
2023-02-14T06:53:06.557Z,66.47
2023-02-14T06:55:33.269Z,65.93
2023-02-14T06:57:59.894Z,65.47
2023-02-14T07:00:26.579Z,66.57
2023-02-14T07:02:53.212Z,66.07
2023-02-14T07:05:20.009Z,67.02
2023-02-14T07:07:46.692Z,66.51
2023-02-14T07:10:13.824Z,67.11
2023-02-14T07:12:40.600Z,65.87
2023-02-14T07:15:09.082Z,66.33
2023-02-14T07:17:36.026Z,66.14
2023-02-14T07:20:03.305Z,66.13
2023-02-14T07:22:30.533Z,66.74
2023-02-14T07:24:57.259Z,66.09
2023-02-14T07:27:23.861Z,66.22
2023-02-14T07:29:50.588Z,65.98
2023-02-14T07:32:17.605Z,66.79
2023-02-14T07:34:44.340Z,66.54
2023-02-14T07:37:11.449Z,66.60
2023-02-14T07:39:38.080Z,67.12
2023-02-14T07:42:04.797Z,66.95
2023-02-14T07:44:32.295Z,67.19
2023-02-14T07:46:59.046Z,67.40
2023-02-14T07:49:25.872Z,67.85
2023-02-14T07:51:52.507Z,68.36
2023-02-14T07:54:20.362Z,68.99
2023-02-14T07:56:47.054Z,69.11
2023-02-14T07:59:13.944Z,69.62
2023-02-14T08:01:40.684Z,70.08
2023-02-14T08:04:07.992Z,69.57
2023-02-14T08:06:35.121Z,69.46
2023-02-14T08:09:01.831Z,69.10
2023-02-14T08:11:46.875Z,68.92
2023-02-14T08:14:13.645Z,69.62
2023-02-14T08:16:40.236Z,69.39
2023-02-14T08:19:06.906Z,68.95
2023-02-14T08:21:33.652Z,68.80
2023-02-14T08:24:00.787Z,68.05
2023-02-14T08:26:27.423Z,67.84
2023-02-14T08:28:54.395Z,67.79
2023-02-14T08:31:35.037Z,67.39
2023-02-14T08:34:02.974Z,67.25
2023-02-14T08:36:29.595Z,67.01
2023-02-14T08:38:57.662Z,67.33
2023-02-14T08:41:25.013Z,66.90
2023-02-14T08:43:51.908Z,66.96
2023-02-14T08:46:18.619Z,66.35
2023-02-14T08:48:45.706Z,66.42
2023-02-14T08:51:14.427Z,66.78
2023-02-14T08:53:41.844Z,65.86
2023-02-14T08:56:14.842Z,66.13
2023-02-14T08:58:41.650Z,66.05
2023-02-14T09:01:13.858Z,65.48
2023-02-14T09:03:40.780Z,66.62
2023-02-14T09:06:10.014Z,66.70
2023-02-14T09:08:38.176Z,66.06
2023-02-14T09:11:16.380Z,65.74
2023-02-14T09:13:43.627Z,65.20
2023-02-14T09:16:11.972Z,64.84
2023-02-14T09:18:40.209Z,65.44
2023-02-14T09:21:09.915Z,65.98
2023-02-14T09:23:36.995Z,64.39
2023-02-14T09:26:06.186Z,64.48
2023-02-14T09:28:33.164Z,63.69
2023-02-14T09:31:12.229Z,62.84
2023-02-14T09:33:39.366Z,62.58
2023-02-14T09:36:18.842Z,62.05
2023-02-14T09:38:46.003Z,61.77
2023-02-14T09:41:28.592Z,62.07
2023-02-14T09:44:07.691Z,62.29
2023-02-14T09:46:45.469Z,62.86
2023-02-14T09:49:16.144Z,63.05
2023-02-14T09:51:49.338Z,62.79
2023-02-14T09:54:27.537Z,63.94
2023-02-14T09:57:00.549Z,63.30
2023-02-14T10:00:03.409Z,61.04
2023-02-14T10:02:48.919Z,60.35
2023-02-14T10:05:23.659Z,59.70
2023-02-14T10:08:08.666Z,60.10
2023-02-14T10:10:43.977Z,61.78
2023-02-14T10:13:48.497Z,60.17
2023-02-14T10:16:33.824Z,59.76
2023-02-14T10:19:03.078Z,59.24
2023-02-14T10:21:39.941Z,58.85
2023-02-14T10:24:49.768Z,58.66
2023-02-14T10:27:34.908Z,58.22
2023-02-14T10:30:03.472Z,58.90
2023-02-14T10:32:47.595Z,59.80
2023-02-14T10:35:31.348Z,60.20
2023-02-14T10:38:04.069Z,60.33
2023-02-14T10:40:45.084Z,61.11
2023-02-14T10:43:20.795Z,59.98
2023-02-14T10:46:13.662Z,58.37
2023-02-14T10:48:59.614Z,55.81
2023-02-14T10:51:33.489Z,54.07
2023-02-14T10:54:25.825Z,53.78
2023-02-14T10:57:04.411Z,54.16
2023-02-14T10:59:40.423Z,54.20
2023-02-14T11:02:13.738Z,53.17
2023-02-14T11:04:42.143Z,52.86
2023-02-14T11:07:14.547Z,52.89
2023-02-14T11:09:41.346Z,52.76
2023-02-14T11:12:08.766Z,52.37
2023-02-14T11:14:38.448Z,51.74
2023-02-14T11:17:28.708Z,50.82
2023-02-14T11:20:06.401Z,50.57
2023-02-14T11:22:35.345Z,50.74
2023-02-14T11:25:27.158Z,49.19
2023-02-14T11:28:05.859Z,51.66
2023-02-14T11:30:41.143Z,50.21
2023-02-14T11:33:13.834Z,51.01
2023-02-14T11:35:40.751Z,50.73
2023-02-14T11:38:30.492Z,51.64
2023-02-14T11:40:59.723Z,51.26
2023-02-14T11:43:37.095Z,50.24
2023-02-14T11:46:07.901Z,49.30
2023-02-14T11:48:38.551Z,47.77
2023-02-14T11:51:16.622Z,48.57
2023-02-14T11:53:47.864Z,48.13
2023-02-14T11:56:17.551Z,47.65
2023-02-14T11:59:03.775Z,47.87
2023-02-14T12:01:33.848Z,47.06
2023-02-14T12:04:07.511Z,47.02
2023-02-14T12:06:36.259Z,47.27
2023-02-14T12:09:21.950Z,45.99
2023-02-14T12:12:00.721Z,46.36
2023-02-14T12:14:36.656Z,46.79
2023-02-14T12:17:23.364Z,45.86
2023-02-14T12:19:52.870Z,47.77
2023-02-14T12:22:28.408Z,47.14
2023-02-14T12:25:21.394Z,47.24
2023-02-14T12:27:56.918Z,45.58
2023-02-14T12:30:25.048Z,45.38
2023-02-14T12:32:54.593Z,43.73
2023-02-14T12:35:30.112Z,43.80
2023-02-14T12:38:15.498Z,44.96
2023-02-14T12:41:06.396Z,45.60
2023-02-14T12:44:05.157Z,42.54
2023-02-14T12:46:37.872Z,43.47
2023-02-14T12:49:26.310Z,42.92
2023-02-14T12:52:45.579Z,42.39
2023-02-14T12:55:12.311Z,40.00
2023-02-14T12:58:00.950Z,41.49
2023-02-14T13:00:42.861Z,40.86
2023-02-14T13:03:15.424Z,41.26
2023-02-14T13:05:51.074Z,41.74
2023-02-14T13:08:20.484Z,42.10
2023-02-14T13:11:05.843Z,43.32
2023-02-14T13:13:50.975Z,43.65
2023-02-14T13:16:31.565Z,43.63
2023-02-14T13:19:12.091Z,43.60
2023-02-14T13:21:40.820Z,43.38
2023-02-14T13:24:29.510Z,42.84
2023-02-14T13:27:00.804Z,42.55
2023-02-14T13:29:43.110Z,42.70
2023-02-14T13:32:14.168Z,43.37
2023-02-14T13:34:47.110Z,44.24
2023-02-14T13:37:17.796Z,45.25
2023-02-14T13:40:03.250Z,45.58
2023-02-14T13:42:49.911Z,44.54
2023-02-14T13:45:38.201Z,44.40
2023-02-14T13:48:20.930Z,44.56
2023-02-14T13:51:05.874Z,43.90
2023-02-14T13:53:32.588Z,43.93
2023-02-14T13:55:59.786Z,43.67
2023-02-14T13:58:27.470Z,43.75
2023-02-14T14:00:55.150Z,43.01
2023-02-14T14:03:27.784Z,42.14
2023-02-14T14:06:08.956Z,40.64
2023-02-14T14:08:38.584Z,39.53
2023-02-14T14:11:11.948Z,39.35
2023-02-14T14:13:41.365Z,38.41
2023-02-14T14:16:27.880Z,38.75
2023-02-14T14:19:18.451Z,38.81
2023-02-14T14:21:59.897Z,36.55
2023-02-14T14:24:30.199Z,37.66
2023-02-14T14:27:07.032Z,36.39
2023-02-14T14:29:55.920Z,37.63
2023-02-14T14:32:30.407Z,35.48
2023-02-14T14:34:58.637Z,36.31
2023-02-14T14:37:28.528Z,37.10
2023-02-14T14:39:58.281Z,36.67
2023-02-14T14:42:32.290Z,36.19
2023-02-14T14:45:07.016Z,36.56
2023-02-14T14:47:45.217Z,37.56
2023-02-14T14:50:22.998Z,37.05
2023-02-14T14:52:53.469Z,36.86
2023-02-14T14:55:26.534Z,38.13
2023-02-14T14:58:03.817Z,38.50
2023-02-14T15:00:38.764Z,37.84
2023-02-14T15:03:07.193Z,38.71
2023-02-14T15:05:38.252Z,39.00
2023-02-14T15:08:32.925Z,37.96
2023-02-14T15:11:12.976Z,39.12
2023-02-14T15:13:50.838Z,39.36
2023-02-14T15:16:38.305Z,39.75
2023-02-14T15:19:37.324Z,39.97
2023-02-14T15:22:18.300Z,39.92
2023-02-14T15:24:45.519Z,40.69
2023-02-14T15:27:24.013Z,41.44
2023-02-14T15:30:02.532Z,41.57
2023-02-14T15:32:32.124Z,41.03
2023-02-14T15:35:03.181Z,40.68
2023-02-14T15:37:30.390Z,41.69
2023-02-14T15:39:57.475Z,41.64
2023-02-14T15:42:32.441Z,41.65
2023-02-14T15:45:24.385Z,42.00
2023-02-14T15:47:53.947Z,41.18
2023-02-14T15:50:25.977Z,41.47
2023-02-14T15:52:56.280Z,40.85
2023-02-14T15:55:26.704Z,41.68
2023-02-14T15:58:20.930Z,41.65
2023-02-14T16:00:49.085Z,42.17
2023-02-14T16:03:22.595Z,42.85
2023-02-14T16:05:50.809Z,42.90
2023-02-14T16:08:31.206Z,43.34
2023-02-14T16:11:32.085Z,42.16
2023-02-14T16:13:59.126Z,42.94
2023-02-14T16:16:25.882Z,45.34
2023-02-14T16:18:56.560Z,46.29
2023-02-14T16:21:25.112Z,47.41
2023-02-14T16:24:04.043Z,47.83
2023-02-14T16:26:31.430Z,47.72
2023-02-14T16:28:58.170Z,47.91
2023-02-14T16:31:25.389Z,47.60
2023-02-14T16:33:52.137Z,48.15
2023-02-14T16:36:24.657Z,48.81
2023-02-14T16:38:51.686Z,48.75
2023-02-14T16:41:24.639Z,49.75
2023-02-14T16:43:51.601Z,49.38
2023-02-14T16:46:21.905Z,49.60
2023-02-14T16:48:52.680Z,50.29
2023-02-14T16:51:22.555Z,50.49
2023-02-14T16:53:50.109Z,50.24
2023-02-14T16:56:19.977Z,50.75
2023-02-14T16:58:47.550Z,51.18
2023-02-14T17:01:14.406Z,51.04
2023-02-14T17:03:42.667Z,51.33
2023-02-14T17:06:16.963Z,51.68
2023-02-14T17:08:44.182Z,52.18
2023-02-14T17:11:11.116Z,52.30
2023-02-14T17:13:42.241Z,52.46
2023-02-14T17:16:12.664Z,52.44
2023-02-14T17:18:42.090Z,53.29
2023-02-14T17:21:09.404Z,53.47
2023-02-14T17:23:36.213Z,53.87
2023-02-14T17:26:02.967Z,53.41
2023-02-14T17:28:29.957Z,53.29
2023-02-14T17:30:58.309Z,53.41
2023-02-14T17:33:26.951Z,53.53
2023-02-14T17:35:53.661Z,53.19
2023-02-14T17:38:21.514Z,53.35
2023-02-14T17:40:48.115Z,53.37
2023-02-14T17:43:15.019Z,53.42
2023-02-14T17:45:41.743Z,53.74
2023-02-14T17:48:11.339Z,53.54
2023-02-14T17:50:38.384Z,53.63
2023-02-14T17:53:05.254Z,53.91
2023-02-14T17:55:31.978Z,54.54
2023-02-14T17:57:58.652Z,54.29
2023-02-14T18:00:25.598Z,53.61
2023-02-14T18:02:52.281Z,53.56
2023-02-14T18:05:18.958Z,54.06
2023-02-14T18:07:45.887Z,54.21
2023-02-14T18:10:12.679Z,54.76
2023-02-14T18:12:39.375Z,54.68
2023-02-14T18:15:06.396Z,54.36
2023-02-14T18:17:33.087Z,54.64
2023-02-14T18:20:00.091Z,55.46
2023-02-14T18:22:28.486Z,54.89
2023-02-14T18:24:58.487Z,54.88
2023-02-14T18:27:26.034Z,55.35
2023-02-14T18:29:52.692Z,55.01
2023-02-14T18:32:19.417Z,54.92
2023-02-14T18:34:46.215Z,55.23
2023-02-14T18:37:14.043Z,55.48
2023-02-14T18:39:40.972Z,54.44
2023-02-14T18:42:07.793Z,55.05
2023-02-14T18:44:36.656Z,55.45
2023-02-14T18:47:03.400Z,54.78
2023-02-14T18:49:30.188Z,55.37
2023-02-14T18:51:58.796Z,55.67
2023-02-14T18:54:25.515Z,55.61
2023-02-14T18:56:52.233Z,55.73
2023-02-14T18:59:18.983Z,56.46
2023-02-14T19:01:46.140Z,56.29
2023-02-14T19:04:13.778Z,56.62
2023-02-14T19:06:41.944Z,56.04
2023-02-14T19:09:11.174Z,55.63
2023-02-14T19:11:38.588Z,55.81
2023-02-14T19:14:10.132Z,55.21
2023-02-14T19:16:50.424Z,55.86
2023-02-14T19:19:17.812Z,55.90
2023-02-14T19:21:44.505Z,55.75
2023-02-14T19:24:11.897Z,56.03
2023-02-14T19:26:42.092Z,56.55
2023-02-14T19:29:14.364Z,56.70
2023-02-14T19:31:44.334Z,55.98
2023-02-14T19:34:17.197Z,55.89
2023-02-14T19:36:44.102Z,55.57
2023-02-14T19:39:11.515Z,55.56
2023-02-14T19:41:39.789Z,56.51
2023-02-14T19:44:08.482Z,56.15
2023-02-14T19:46:35.471Z,56.22
2023-02-14T19:49:02.164Z,56.18
2023-02-14T19:51:35.927Z,56.01
2023-02-14T19:54:05.633Z,56.20
2023-02-14T19:56:34.792Z,56.16
2023-02-14T19:59:07.708Z,56.28
2023-02-14T20:01:44.442Z,56.97
2023-02-14T20:04:15.004Z,56.59
2023-02-14T20:06:43.063Z,56.68
2023-02-14T20:09:09.846Z,57.06
2023-02-14T20:11:40.109Z,57.61
2023-02-14T20:14:08.603Z,57.86
2023-02-14T20:16:37.779Z,57.72
2023-02-14T20:19:08.279Z,57.85
2023-02-14T20:21:35.569Z,57.83
2023-02-14T20:24:03.887Z,57.67
2023-02-14T20:26:32.788Z,57.07
2023-02-14T20:29:03.792Z,56.33
2023-02-14T20:31:32.698Z,56.71
2023-02-14T20:34:00.312Z,57.41
2023-02-14T20:36:27.969Z,57.85
2023-02-14T20:38:56.240Z,57.53
2023-02-14T20:41:23.862Z,57.16
2023-02-14T20:43:50.689Z,56.98
2023-02-14T20:46:18.276Z,57.94
2023-02-14T20:48:45.012Z,57.42
2023-02-14T20:51:17.242Z,57.39
2023-02-14T20:53:45.542Z,57.78
2023-02-14T20:56:13.167Z,57.09
2023-02-14T20:58:41.027Z,58.05
2023-02-14T21:01:10.626Z,57.96
2023-02-14T21:03:37.722Z,57.69
2023-02-14T21:06:05.842Z,58.41
2023-02-14T21:08:33.423Z,58.25
2023-02-14T21:11:00.440Z,58.27
2023-02-14T21:13:27.479Z,58.01
2023-02-14T21:15:54.353Z,58.04
2023-02-14T21:18:21.606Z,57.54
2023-02-14T21:20:48.516Z,57.15
2023-02-14T21:23:15.335Z,57.58
2023-02-14T21:25:42.807Z,58.06
2023-02-14T21:28:09.501Z,58.49
2023-02-14T21:30:36.246Z,58.42
2023-02-14T21:33:04.263Z,57.43
2023-02-14T21:35:31.065Z,57.33
2023-02-14T21:37:57.772Z,57.69
2023-02-14T21:40:24.744Z,57.70
2023-02-14T21:42:51.736Z,58.82
2023-02-14T21:45:37.234Z,58.69
2023-02-14T21:48:22.477Z,58.09
2023-02-14T21:50:49.219Z,57.98
2023-02-14T21:53:15.869Z,57.97
2023-02-14T21:55:42.931Z,58.76
2023-02-14T21:58:09.599Z,59.05
2023-02-14T22:00:36.359Z,58.51
2023-02-14T22:03:03.031Z,59.11
2023-02-14T22:05:29.759Z,58.63
2023-02-14T22:07:56.379Z,59.22
2023-02-14T22:10:23.184Z,58.20
2023-02-14T22:12:49.923Z,58.53
2023-02-14T22:15:16.559Z,58.68
2023-02-14T22:17:43.473Z,58.71
2023-02-14T22:20:10.465Z,58.77
2023-02-14T22:22:37.146Z,58.84
2023-02-14T22:25:03.955Z,58.13
2023-02-14T22:27:30.869Z,58.67
2023-02-14T22:29:57.634Z,59.31
2023-02-14T22:32:24.384Z,58.87
2023-02-14T22:34:51.165Z,59.17
2023-02-14T22:37:17.770Z,58.37
2023-02-14T22:39:44.391Z,59.36
2023-02-14T22:42:11.080Z,59.39
2023-02-14T22:44:37.934Z,58.92
2023-02-14T22:47:04.617Z,59.32
2023-02-14T22:49:31.412Z,59.27
2023-02-14T22:51:58.104Z,58.80
2023-02-14T22:54:24.752Z,59.17
2023-02-14T22:56:51.521Z,59.83
2023-02-14T22:59:24.218Z,59.40
2023-02-14T23:01:52.896Z,59.26
2023-02-14T23:04:22.355Z,59.01
2023-02-14T23:06:49.296Z,59.99
2023-02-14T23:09:16.490Z,58.99
2023-02-14T23:11:45.004Z,58.75
2023-02-14T23:14:35.104Z,58.63
2023-02-14T23:17:21.806Z,58.59
2023-02-14T23:20:07.039Z,58.79
2023-02-14T23:22:38.825Z,59.39
2023-02-14T23:25:08.184Z,58.33
2023-02-14T23:27:40.872Z,59.15
2023-02-14T23:30:11.170Z,59.40
2023-02-14T23:32:37.928Z,59.42
2023-02-14T23:35:05.539Z,58.14
2023-02-14T23:37:32.268Z,58.80
2023-02-14T23:39:58.916Z,59.73
2023-02-14T23:42:25.608Z,59.42
2023-02-14T23:44:52.443Z,59.74
2023-02-14T23:47:19.121Z,60.25
2023-02-14T23:49:46.057Z,59.55
2023-02-14T23:52:13.728Z,59.44
2023-02-14T23:54:40.578Z,59.02
2023-02-14T23:57:08.845Z,59.01
2023-02-14T23:59:35.718Z,60.17
